Terminal Aerodrome Forecast
Issued by NWS Twin Cities, MN

Home | Current Version | Previous Version | Graphics & Text | Print | Product List | Glossary On
Versions: 1 2 3 4 5 6 7 8 9 10 11 12 13 14 15
000
FTUS43 KMPX 241738
TAFEAU
TAF
KEAU 241738Z 2418/2518 30016G25KT P6SM FEW060
     FM250000 31009KT P6SM SCT200
     FM251000 34003KT P6SM BKN120
     FM251500 02004KT P6SM OVC080=

USA.gov is the U.S. government's official web portal to all federal, state and local government web resources and services.